createdAt,value
2023-04-11T00:00:02.162Z,8.50
2023-04-11T00:02:30.363Z,8.60
2023-04-11T00:05:00.382Z,8.70
2023-04-11T00:12:33.890Z,9.00
2023-04-11T00:15:01.371Z,9.10
2023-04-11T00:17:30.779Z,9.00
2023-04-11T00:20:01.174Z,8.90
2023-04-11T00:22:30.039Z,8.70
2023-04-11T00:24:57.465Z,8.80
2023-04-11T00:27:24.902Z,8.80
2023-04-11T00:32:32.171Z,9.10
2023-04-11T00:34:59.934Z,8.40
2023-04-11T00:37:30.000Z,8.40
2023-04-11T00:39:57.395Z,8.50
2023-04-11T00:42:24.638Z,8.40
2023-04-11T00:44:51.496Z,8.40
2023-04-11T00:47:20.705Z,8.20
2023-04-11T00:55:46.783Z,7.80
2023-04-11T00:58:16.397Z,8.00
2023-04-11T01:00:44.166Z,8.10
2023-04-11T01:03:12.385Z,8.30
2023-04-11T01:05:40.974Z,8.30
2023-04-11T01:08:11.372Z,8.20
2023-04-11T01:10:40.655Z,7.90
2023-04-11T01:21:11.963Z,7.70
2023-04-11T01:23:40.557Z,8.00
2023-04-11T01:26:07.899Z,8.00
2023-04-11T01:28:37.116Z,8.10
2023-04-11T01:31:04.552Z,8.20
2023-04-11T01:33:31.495Z,8.30
2023-04-11T01:35:58.949Z,8.40
2023-04-11T01:38:26.563Z,8.30
2023-04-11T01:46:00.534Z,8.60
2023-04-11T01:48:29.399Z,8.90
2023-04-11T01:50:58.020Z,9.20
2023-04-11T01:53:25.525Z,9.00
2023-04-11T01:55:52.822Z,9.10
2023-04-11T01:58:20.193Z,9.10
2023-04-11T02:00:48.105Z,9.30
2023-04-11T02:11:18.684Z,9.70
2023-04-11T02:13:46.192Z,9.60
2023-04-11T02:16:14.583Z,9.60
2023-04-11T02:18:44.365Z,9.60
2023-04-11T02:21:12.971Z,9.40
2023-04-11T02:23:40.497Z,9.40
2023-04-11T02:26:07.763Z,9.10
2023-04-11T02:36:23.762Z,9.00
2023-04-11T02:38:51.524Z,8.40
2023-04-11T02:41:19.173Z,8.50
2023-04-11T02:43:46.605Z,8.60
2023-04-11T02:46:14.348Z,8.60
2023-04-11T02:48:41.771Z,8.60
2023-04-11T02:51:09.583Z,8.60
2023-04-11T02:53:37.738Z,8.80
2023-04-11T03:01:14.833Z,8.40
2023-04-11T03:03:42.748Z,8.60
2023-04-11T03:06:10.691Z,8.90
2023-04-11T03:08:38.659Z,8.90
2023-04-11T03:11:06.615Z,9.00
2023-04-11T03:13:35.980Z,9.10
2023-04-11T03:16:03.832Z,9.00
2023-04-11T03:18:32.997Z,9.00
2023-04-11T03:26:12.630Z,9.10
2023-04-11T03:28:41.861Z,8.80
2023-04-11T03:31:10.285Z,8.70
2023-04-11T03:33:40.589Z,8.80
2023-04-11T03:36:26.577Z,8.70
2023-04-11T03:38:54.261Z,8.60
2023-04-11T03:41:26.388Z,8.60
2023-04-11T03:49:34.778Z,8.60
2023-04-11T03:52:06.850Z,8.60
2023-04-11T03:54:36.049Z,8.50
2023-04-11T03:57:06.776Z,8.30
2023-04-11T03:59:38.626Z,8.00
2023-04-11T04:02:28.964Z,8.00
2023-04-11T04:05:04.717Z,8.10
2023-04-11T04:07:41.792Z,8.00
2023-04-11T04:15:14.555Z,7.90
2023-04-11T04:17:42.468Z,8.20
2023-04-11T04:20:10.502Z,8.20
2023-04-11T04:22:38.382Z,8.10
2023-04-11T04:25:08.988Z,7.90
2023-04-11T04:27:36.193Z,8.00
2023-04-11T04:30:04.842Z,8.00
2023-04-11T04:35:27.543Z,7.70
2023-04-11T04:37:54.971Z,7.80
2023-04-11T04:40:23.792Z,7.60
2023-04-11T04:42:57.733Z,7.70
2023-04-11T04:45:26.140Z,7.60
2023-04-11T04:47:55.330Z,7.70
2023-04-11T04:50:23.364Z,7.60
2023-04-11T04:55:31.238Z,7.70
2023-04-11T04:57:58.688Z,7.60
2023-04-11T05:00:26.600Z,7.80
2023-04-11T05:02:55.194Z,7.70
2023-04-11T05:05:22.742Z,7.60
2023-04-11T05:07:50.217Z,7.50
2023-04-11T05:10:18.814Z,7.30
2023-04-11T05:18:22.782Z,6.90
2023-04-11T05:20:50.517Z,6.90
2023-04-11T05:23:18.790Z,6.80
2023-04-11T05:25:47.062Z,6.90
2023-04-11T05:28:15.178Z,6.90
2023-04-11T05:30:42.152Z,7.00
2023-04-11T05:33:09.931Z,7.00
2023-04-11T05:43:26.672Z,6.70
2023-04-11T05:45:53.963Z,6.70
2023-04-11T05:48:22.400Z,6.70
2023-04-11T05:50:51.631Z,6.80
2023-04-11T05:53:19.508Z,6.90
2023-04-11T05:55:46.917Z,6.90
2023-04-11T05:58:19.207Z,7.00
2023-04-11T06:00:49.108Z,7.00
2023-04-11T06:08:24.816Z,7.00
2023-04-11T06:10:52.536Z,7.00
2023-04-11T06:13:19.506Z,7.00
2023-04-11T06:15:47.573Z,7.00
2023-04-11T06:18:15.411Z,7.30
2023-04-11T06:20:42.853Z,7.10
2023-04-11T06:23:10.654Z,7.10
2023-04-11T06:30:07.373Z,7.20
2023-04-11T06:32:35.495Z,7.70
2023-04-11T06:35:03.335Z,7.80
2023-04-11T06:37:31.001Z,8.10
2023-04-11T06:40:00.237Z,7.80
2023-04-11T06:42:27.962Z,7.70
2023-04-11T06:44:56.200Z,7.50
2023-04-11T06:50:04.804Z,7.40
2023-04-11T06:52:32.360Z,7.50
2023-04-11T06:54:59.951Z,7.50
2023-04-11T06:57:27.459Z,7.60
2023-04-11T06:59:54.800Z,7.30
2023-04-11T07:02:24.550Z,7.30
2023-04-11T07:04:53.219Z,7.50
2023-04-11T07:10:32.595Z,7.60
2023-04-11T07:13:00.236Z,7.60
2023-04-11T07:15:29.889Z,7.80
2023-04-11T07:17:57.931Z,8.00
2023-04-11T07:20:25.716Z,8.20
2023-04-11T07:22:53.536Z,7.80
2023-04-11T07:25:22.189Z,7.60
2023-04-11T07:32:28.699Z,7.80
2023-04-11T07:34:57.437Z,8.00
2023-04-11T07:37:26.468Z,8.00
2023-04-11T07:39:54.205Z,7.70
2023-04-11T07:42:22.288Z,7.50
2023-04-11T07:44:49.578Z,7.40
2023-04-11T07:47:17.150Z,7.60
2023-04-11T07:49:46.199Z,7.50
2023-04-11T07:57:19.460Z,7.50
2023-04-11T07:59:46.944Z,7.60
2023-04-11T08:02:15.619Z,7.60
2023-04-11T08:04:46.354Z,7.70
2023-04-11T08:07:13.785Z,8.00
2023-04-11T08:09:42.190Z,8.00
2023-04-11T08:12:11.413Z,7.90
2023-04-11T08:17:27.759Z,7.80
2023-04-11T08:19:57.190Z,7.90
2023-04-11T08:22:28.529Z,8.10
2023-04-11T08:24:57.403Z,8.10
2023-04-11T08:27:27.254Z,8.20
2023-04-11T08:30:01.289Z,8.20
2023-04-11T08:32:30.563Z,8.20
2023-04-11T08:37:38.709Z,8.00
2023-04-11T08:40:08.265Z,8.10
2023-04-11T08:42:35.913Z,8.00
2023-04-11T08:45:08.333Z,8.10
2023-04-11T08:47:37.573Z,8.30
2023-04-11T08:50:05.833Z,8.30
2023-04-11T08:52:35.833Z,8.50
2023-04-11T08:55:06.373Z,8.50
2023-04-11T09:03:10.857Z,8.80
2023-04-11T09:05:41.217Z,9.30
2023-04-11T09:08:10.717Z,9.00
2023-04-11T09:10:41.220Z,8.90
2023-04-11T09:13:21.505Z,8.60
2023-04-11T09:16:03.811Z,8.70
2023-04-11T09:18:37.577Z,9.00
2023-04-11T09:26:14.298Z,9.60
2023-04-11T09:28:45.323Z,9.80
2023-04-11T09:31:15.079Z,10.10
2023-04-11T09:33:56.904Z,10.30
2023-04-11T09:36:28.557Z,10.20
2023-04-11T09:38:57.478Z,9.60
2023-04-11T09:41:38.538Z,9.70
2023-04-11T09:47:15.841Z,9.50
2023-04-11T09:49:47.134Z,9.30
2023-04-11T09:52:16.305Z,9.30
2023-04-11T09:54:45.133Z,9.40
2023-04-11T09:57:14.538Z,9.70
2023-04-11T09:59:43.333Z,10.20
2023-04-11T10:02:11.751Z,10.10
2023-04-11T10:09:50.315Z,9.70
2023-04-11T10:12:33.212Z,10.10
2023-04-11T10:15:09.229Z,10.30
2023-04-11T10:17:40.906Z,10.10
2023-04-11T10:20:48.810Z,10.10
2023-04-11T10:23:16.972Z,9.80
2023-04-11T10:25:54.795Z,10.00
2023-04-11T10:34:18.326Z,10.70
2023-04-11T10:37:07.838Z,10.80
2023-04-11T10:40:09.876Z,10.50
2023-04-11T10:42:41.760Z,10.40
2023-04-11T10:45:25.013Z,10.30
2023-04-11T10:48:12.734Z,10.60
2023-04-11T10:55:46.779Z,11.00
2023-04-11T10:58:20.112Z,11.50
2023-04-11T11:01:31.867Z,11.70
2023-04-11T11:04:06.370Z,11.60
2023-04-11T11:06:46.290Z,11.20
2023-04-11T11:09:28.929Z,11.10
2023-04-11T11:12:11.002Z,11.30
2023-04-11T11:19:48.748Z,10.70
2023-04-11T11:22:17.843Z,10.30
2023-04-11T11:24:48.170Z,10.30
2023-04-11T11:27:23.942Z,10.30
2023-04-11T11:29:53.909Z,11.00
2023-04-11T11:32:23.624Z,11.10
2023-04-11T11:34:54.562Z,10.90
2023-04-11T11:43:14.249Z,10.40
2023-04-11T11:45:41.608Z,10.40
2023-04-11T11:48:19.178Z,10.70
2023-04-11T11:50:46.549Z,10.70
2023-04-11T11:53:15.120Z,11.00
2023-04-11T11:55:43.592Z,11.00
2023-04-11T11:58:13.261Z,10.60
2023-04-11T12:03:25.067Z,10.40
2023-04-11T12:05:57.772Z,11.00
2023-04-11T12:08:27.189Z,11.10
2023-04-11T12:10:55.286Z,11.60
2023-04-11T12:13:27.525Z,11.90
2023-04-11T12:15:57.396Z,12.50
2023-04-11T12:18:32.272Z,12.20
2023-04-11T12:28:08.184Z,12.30
2023-04-11T12:30:35.961Z,12.50
2023-04-11T12:33:07.780Z,12.40
2023-04-11T12:35:37.500Z,12.30
2023-04-11T12:38:06.004Z,12.50
2023-04-11T12:40:33.811Z,12.20
2023-04-11T12:43:01.104Z,12.40
2023-04-11T12:50:34.672Z,12.80
2023-04-11T12:53:02.355Z,12.00
2023-04-11T12:55:30.685Z,11.80
2023-04-11T12:57:59.248Z,12.00
2023-04-11T13:00:26.924Z,11.90
2023-04-11T13:02:54.489Z,11.80
2023-04-11T13:05:23.090Z,11.90
2023-04-11T13:11:01.432Z,11.90
2023-04-11T13:13:29.843Z,11.50
2023-04-11T13:15:57.785Z,11.70
2023-04-11T13:18:27.999Z,11.60
2023-04-11T13:20:56.531Z,11.50
2023-04-11T13:23:24.762Z,12.00
2023-04-11T13:25:52.573Z,12.70
2023-04-11T13:31:29.316Z,13.20
2023-04-11T13:33:57.848Z,12.80
2023-04-11T13:36:27.924Z,12.80
2023-04-11T13:38:57.396Z,12.70
2023-04-11T13:41:25.866Z,12.90
2023-04-11T13:43:53.639Z,13.10
2023-04-11T13:46:24.223Z,12.90
2023-04-11T13:52:17.803Z,13.00
2023-04-11T13:54:47.226Z,12.50
2023-04-11T13:57:15.814Z,12.50
2023-04-11T13:59:43.846Z,12.30
2023-04-11T14:02:12.946Z,12.70
2023-04-11T14:04:41.846Z,13.30
2023-04-11T14:07:11.435Z,13.80
2023-04-11T14:12:30.766Z,13.70
2023-04-11T14:14:58.008Z,13.90
2023-04-11T14:17:26.810Z,13.20
2023-04-11T14:19:55.766Z,13.70
2023-04-11T14:22:27.904Z,13.70
2023-04-11T14:24:55.356Z,13.40
2023-04-11T14:27:24.179Z,13.60
2023-04-11T14:32:37.705Z,13.70
2023-04-11T14:35:08.142Z,13.20
2023-04-11T14:37:36.402Z,12.90
2023-04-11T14:40:08.404Z,12.90
2023-04-11T14:42:37.542Z,12.60
2023-04-11T14:45:06.365Z,12.50
2023-04-11T14:47:35.157Z,12.50
2023-04-11T14:50:02.878Z,12.80
2023-04-11T14:57:48.020Z,13.20
2023-04-11T15:00:20.441Z,13.00
2023-04-11T15:02:49.489Z,12.70
2023-04-11T15:05:22.484Z,13.00
2023-04-11T15:07:51.814Z,13.00
2023-04-11T15:10:21.421Z,13.30
2023-04-11T15:12:49.918Z,13.80
2023-04-11T15:20:43.039Z,13.40
2023-04-11T15:23:10.486Z,13.80
2023-04-11T15:25:38.606Z,13.80
2023-04-11T15:28:06.369Z,13.50
2023-04-11T15:30:35.625Z,13.80
2023-04-11T15:33:04.051Z,14.00
2023-04-11T15:35:32.287Z,13.80
2023-04-11T15:38:01.436Z,13.20
2023-04-11T15:45:37.275Z,12.50
2023-04-11T15:48:05.875Z,12.80
2023-04-11T15:50:38.970Z,12.90
2023-04-11T15:53:07.675Z,12.50
2023-04-11T15:55:40.026Z,12.70
2023-04-11T15:58:10.254Z,13.10
2023-04-11T16:00:43.558Z,13.20
2023-04-11T16:08:17.706Z,13.30
2023-04-11T16:10:46.432Z,13.10
2023-04-11T16:13:14.474Z,13.10
2023-04-11T16:15:41.919Z,12.90
2023-04-11T16:18:10.977Z,12.60
2023-04-11T16:20:39.828Z,12.50
2023-04-11T16:23:07.500Z,12.30
2023-04-11T16:28:31.931Z,12.30
2023-04-11T16:31:00.900Z,11.90
2023-04-11T16:33:30.216Z,12.00
2023-04-11T16:36:00.622Z,12.10
2023-04-11T16:38:28.748Z,11.70
2023-04-11T16:40:57.803Z,11.60
2023-04-11T16:43:26.401Z,11.60
2023-04-11T16:50:58.824Z,12.10
2023-04-11T16:53:27.784Z,12.40
2023-04-11T16:55:58.558Z,12.20
2023-04-11T16:58:26.941Z,12.00
2023-04-11T17:00:55.711Z,12.00
2023-04-11T17:03:27.026Z,11.90
2023-04-11T17:05:57.852Z,11.70
2023-04-11T17:13:37.356Z,11.70
2023-04-11T17:16:06.415Z,11.30
2023-04-11T17:18:46.859Z,11.30
2023-04-11T17:21:20.064Z,11.30
2023-04-11T17:23:51.698Z,11.20
2023-04-11T17:26:23.153Z,11.50
2023-04-11T17:28:57.066Z,11.80
2023-04-11T17:34:17.800Z,11.70
2023-04-11T17:36:48.987Z,11.90
2023-04-11T17:39:19.235Z,11.70
2023-04-11T17:41:47.770Z,11.80
2023-04-11T17:44:17.886Z,11.60
2023-04-11T17:46:48.197Z,11.70
2023-04-11T17:49:21.566Z,11.80
2023-04-11T17:56:57.192Z,12.20
2023-04-11T17:59:26.640Z,12.10
2023-04-11T18:01:55.424Z,12.20
2023-04-11T18:04:23.802Z,12.30
2023-04-11T18:06:51.416Z,12.20
2023-04-11T18:09:20.895Z,12.20
2023-04-11T18:11:49.142Z,12.20
2023-04-11T18:17:00.046Z,12.20
2023-04-11T18:19:30.248Z,11.70
2023-04-11T18:21:59.477Z,11.70
2023-04-11T18:24:27.492Z,11.80
2023-04-11T18:26:54.922Z,11.80
2023-04-11T18:29:22.170Z,11.80
2023-04-11T18:31:51.296Z,12.10
2023-04-11T18:39:28.067Z,12.30
2023-04-11T18:41:56.227Z,12.30
2023-04-11T18:44:25.863Z,12.30
2023-04-11T18:47:05.351Z,12.40
2023-04-11T18:49:39.953Z,12.20
2023-04-11T18:52:10.656Z,12.20
2023-04-11T18:54:39.853Z,12.20
2023-04-11T19:03:06.153Z,12.00
2023-04-11T19:05:42.353Z,12.00
2023-04-11T19:08:16.320Z,11.90
2023-04-11T19:11:02.488Z,11.80
2023-04-11T19:13:37.630Z,11.90
2023-04-11T19:16:13.558Z,11.80
2023-04-11T19:18:51.708Z,11.80
2023-04-11T19:26:33.228Z,11.60
2023-04-11T19:29:08.962Z,11.30
2023-04-11T19:31:45.028Z,11.20
2023-04-11T19:34:16.412Z,11.20
2023-04-11T19:36:49.858Z,11.30
2023-04-11T19:39:23.829Z,11.40
2023-04-11T19:42:00.959Z,11.20
2023-04-11T19:49:41.851Z,11.20
2023-04-11T19:52:13.990Z,11.10
2023-04-11T19:54:48.389Z,11.20
2023-04-11T19:57:21.364Z,11.10
2023-04-11T19:59:52.623Z,11.10
2023-04-11T20:02:25.846Z,11.10
2023-04-11T20:05:18.159Z,11.10
2023-04-11T20:10:57.521Z,11.00
2023-04-11T20:13:31.374Z,11.10
2023-04-11T20:16:05.753Z,11.10
2023-04-11T20:18:36.712Z,11.10
2023-04-11T20:21:11.360Z,11.20
2023-04-11T20:23:44.333Z,11.10
2023-04-11T20:26:19.937Z,11.10
2023-04-11T20:34:02.988Z,11.20
2023-04-11T20:36:33.664Z,11.10
2023-04-11T20:39:05.159Z,11.10
2023-04-11T20:41:36.087Z,11.00
2023-04-11T20:44:06.995Z,10.90
2023-04-11T20:46:40.304Z,10.90
2023-04-11T20:49:13.697Z,10.80
2023-04-11T20:54:21.438Z,10.90
2023-04-11T20:56:50.588Z,10.80
2023-04-11T20:59:18.930Z,10.90
2023-04-11T21:01:50.689Z,11.00
2023-04-11T21:04:19.231Z,11.00
2023-04-11T21:06:49.843Z,11.10
2023-04-11T21:09:18.047Z,11.00
2023-04-11T21:15:04.424Z,11.10
2023-04-11T21:17:35.024Z,11.20
2023-04-11T21:20:09.692Z,11.10
2023-04-11T21:22:40.952Z,11.00
2023-04-11T21:25:12.153Z,11.20
2023-04-11T21:27:43.341Z,11.20
2023-04-11T21:30:13.773Z,11.30
2023-04-11T21:37:48.561Z,11.30
2023-04-11T21:40:18.070Z,11.30
2023-04-11T21:42:46.763Z,11.40
2023-04-11T21:45:14.501Z,11.30
2023-04-11T21:47:42.868Z,11.20
2023-04-11T21:50:11.519Z,11.40
2023-04-11T21:52:38.771Z,11.50
2023-04-11T22:02:14.084Z,11.50
2023-04-11T22:04:51.715Z,11.50
2023-04-11T22:07:24.257Z,11.30
2023-04-11T22:09:57.928Z,11.20
2023-04-11T22:12:26.872Z,11.20
2023-04-11T22:14:56.533Z,11.10
2023-04-11T22:17:25.628Z,11.00
2023-04-11T22:22:42.076Z,11.10
2023-04-11T22:25:10.249Z,11.00
2023-04-11T22:27:38.066Z,11.00
2023-04-11T22:30:08.329Z,11.00
2023-04-11T22:32:36.644Z,11.00
2023-04-11T22:35:04.782Z,11.20
2023-04-11T22:37:32.172Z,11.20
2023-04-11T22:45:04.980Z,11.10
2023-04-11T22:47:33.739Z,10.90
2023-04-11T22:50:01.160Z,10.90
2023-04-11T22:52:30.244Z,10.90
2023-04-11T22:54:57.604Z,10.90
2023-04-11T22:57:25.809Z,10.90
2023-04-11T22:59:53.766Z,11.10
2023-04-11T23:05:09.542Z,11.00
2023-04-11T23:07:36.848Z,10.90
2023-04-11T23:10:05.816Z,11.00
2023-04-11T23:12:33.433Z,11.10
2023-04-11T23:15:01.757Z,11.10
2023-04-11T23:17:29.112Z,11.10
2023-04-11T23:19:59.157Z,11.00
2023-04-11T23:30:36.999Z,10.90
2023-04-11T23:33:08.018Z,10.80
2023-04-11T23:35:35.459Z,10.70
2023-04-11T23:38:06.276Z,10.70
2023-04-11T23:40:34.027Z,10.70
2023-04-11T23:43:01.287Z,10.70
2023-04-11T23:45:28.623Z,10.60
2023-04-11T23:53:00.915Z,10.80
2023-04-11T23:55:29.285Z,10.80
2023-04-11T23:57:57.025Z,10.80
